Time;durP1;ratioP1;P1;durP2;ratioP2;P2;SDS_P1;SDS_P2;PMS_P1;PMS_P2;Temp;Humidity;BMP_temperature;BMP_pressure;BME280_temperature;BME280_humidity;BME280_pressure;Samples;Min_cycle;Max_cycle;Signal;HPM_P1;HPM_P2
2023/06/21 00:00:35;;;;;;;7.80;6.38;;;19.70;99.90;;;19.67;100.00;97102.47;5042944;28;20063;-39
2023/06/21 00:03:04;;;;;;;10.40;6.93;;;19.70;99.90;;;19.66;100.00;97098.94;5042372;28;20028;-39
2023/06/21 00:05:31;;;;;;;7.90;6.65;;;19.60;99.90;;;19.64;100.00;97099.06;5038435;28;20028;-38
2023/06/21 00:07:57;;;;;;;7.93;6.30;;;19.60;99.90;;;19.58;100.00;97088.00;5047831;28;20063;-38
2023/06/21 00:10:23;;;;;;;9.57;6.72;;;19.60;99.90;;;19.57;100.00;97086.28;5043020;28;20033;-40
2023/06/21 00:12:53;;;;;;;8.40;6.88;;;19.60;99.90;;;19.52;100.00;97086.63;5043912;28;20090;-38
2023/06/21 00:15:20;;;;;;;9.63;6.65;;;19.50;99.90;;;19.47;100.00;97088.84;5043022;28;20788;-39
2023/06/21 00:17:46;;;;;;;8.52;6.80;;;19.50;99.90;;;19.45;100.00;97080.94;5047608;28;20033;-39
2023/06/21 00:20:12;;;;;;;8.70;6.75;;;19.40;99.90;;;19.45;100.00;97090.78;5031117;28;20033;-40
2023/06/21 00:22:39;;;;;;;10.32;6.80;;;19.40;99.90;;;19.41;100.00;97087.47;5049552;28;20032;-38
2023/06/21 00:25:08;;;;;;;8.45;6.45;;;19.40;99.90;;;19.40;100.00;97085.78;5044174;28;20028;-38
2023/06/21 00:27:35;;;;;;;8.25;6.90;;;19.40;99.90;;;19.38;100.00;97081.53;5045569;28;20060;-38
2023/06/21 00:30:01;;;;;;;7.43;6.60;;;19.40;99.90;;;19.37;100.00;97086.03;5039921;28;20051;-38
2023/06/21 00:32:27;;;;;;;10.40;6.93;;;19.40;99.90;;;19.34;100.00;97094.28;5006139;28;1009063;-38
2023/06/21 00:34:53;;;;;;;9.18;6.72;;;19.30;99.90;;;19.33;100.00;97095.25;5042082;28;20032;-38
2023/06/21 00:37:18;;;;;;;10.45;7.30;;;19.30;99.90;;;19.34;100.00;97102.28;5044756;28;20191;-38
2023/06/21 00:39:44;;;;;;;8.13;7.00;;;19.40;99.90;;;19.36;100.00;97105.72;5044881;28;20111;-39
2023/06/21 00:42:10;;;;;;;8.30;7.22;;;19.40;99.90;;;19.39;100.00;97099.28;5040534;28;21305;-38
2023/06/21 00:44:36;;;;;;;9.10;7.47;;;19.40;99.90;;;19.42;100.00;97107.06;5039583;28;20152;-39
2023/06/21 00:47:02;;;;;;;9.02;7.05;;;19.40;99.90;;;19.40;100.00;97101.84;5035271;28;20426;-39
2023/06/21 00:49:28;;;;;;;10.70;6.90;;;19.40;99.90;;;19.36;100.00;97102.19;5038817;28;20307;-39
2023/06/21 00:51:57;;;;;;;10.18;7.55;;;19.30;99.90;;;19.30;100.00;97089.31;5042163;28;20068;-38
2023/06/21 00:54:27;;;;;;;8.68;7.60;;;19.40;99.90;;;19.36;100.00;97112.88;5033420;28;20037;-39
2023/06/21 00:56:53;;;;;;;8.23;7.28;;;19.40;99.90;;;19.34;100.00;97107.66;5044968;28;20027;-38
2023/06/21 00:59:19;;;;;;;10.23;7.18;;;19.40;99.90;;;19.34;100.00;97113.00;5038335;28;20028;-40
2023/06/21 01:01:46;;;;;;;9.38;8.05;;;19.30;99.90;;;19.32;100.00;97114.09;5042466;28;20296;-39
2023/06/21 01:04:12;;;;;;;7.75;6.88;;;19.30;99.90;;;19.31;100.00;97112.38;5038765;28;20036;-39
2023/06/21 01:07:32;;;;;;;10.15;7.22;;;19.30;99.90;;;19.29;100.00;97117.88;5041837;28;20139;-39
2023/06/21 01:10:35;;;;;;;9.02;7.43;;;19.30;99.90;;;19.26;100.00;97126.13;5038251;28;20032;-38
2023/06/21 01:13:21;;;;;;;9.57;7.10;;;19.30;99.90;;;19.22;100.00;97125.50;5044674;28;20715;-39
2023/06/21 01:15:50;;;;;;;12.20;7.00;;;19.20;99.90;;;19.19;100.00;97123.06;5043903;28;20328;-38
2023/06/21 01:18:20;;;;;;;8.35;7.25;;;19.20;99.90;;;19.17;100.00;97125.00;5038701;28;20056;-39
2023/06/21 01:20:53;;;;;;;9.18;7.03;;;19.20;99.90;;;19.14;100.00;97130.56;5040438;28;20032;-38
2023/06/21 01:24:06;;;;;;;10.98;7.10;;;19.20;99.90;;;19.10;100.00;97129.09;5042651;28;20082;-38
2023/06/21 01:26:52;;;;;;;8.15;6.85;;;19.10;99.90;;;19.09;100.00;97130.06;5041649;28;20131;-39
2023/06/21 01:29:28;;;;;;;9.55;7.28;;;19.10;99.90;;;19.06;100.00;97136.50;5035555;28;20461;-39
2023/06/21 01:31:56;;;;;;;9.82;7.13;;;19.10;99.90;;;19.04;100.00;97137.56;5040394;28;20043;-38
2023/06/21 01:34:23;;;;;;;7.80;6.38;;;19.00;99.90;;;19.04;100.00;97133.09;5038197;28;20398;-39
2023/06/21 01:36:49;;;;;;;13.18;6.57;;;19.00;99.90;;;19.05;100.00;97133.94;5039248;28;20080;-38
2023/06/21 01:39:15;;;;;;;7.50;6.70;;;19.00;99.90;;;19.04;100.00;97138.44;5037667;28;20048;-38
2023/06/21 01:41:41;;;;;;;11.75;6.90;;;19.00;99.90;;;18.97;100.00;97123.84;5037439;28;20039;-39
2023/06/21 01:44:09;;;;;;;8.48;6.60;;;19.00;99.90;;;19.02;100.00;97136.84;5037144;28;20127;-38
2023/06/21 01:46:35;;;;;;;11.27;7.03;;;19.00;99.90;;;19.02;100.00;97140.38;5037395;28;20039;-38
2023/06/21 01:49:06;;;;;;;7.80;6.65;;;19.00;99.90;;;19.04;100.00;97154.47;5041907;28;20043;-38
2023/06/21 01:51:35;;;;;;;8.68;7.10;;;19.10;99.90;;;19.05;100.00;97155.31;5035952;28;20399;-38
2023/06/21 01:54:01;;;;;;;9.05;7.03;;;19.10;99.90;;;19.06;100.00;97162.38;5037160;28;20897;-38
2023/06/21 01:56:27;;;;;;;9.35;6.80;;;19.10;99.90;;;19.07;100.00;97164.91;5038120;28;20138;-38
2023/06/21 01:58:53;;;;;;;8.50;7.00;;;19.10;99.90;;;19.08;100.00;97163.94;5042498;28;20033;-38
2023/06/21 02:01:20;;;;;;;8.65;7.10;;;19.10;99.90;;;19.09;100.00;97170.16;5035807;28;20032;-38
2023/06/21 02:03:54;;;;;;;10.05;7.38;;;19.10;99.90;;;19.06;100.00;97168.56;5040052;28;20017;-39
2023/06/21 02:06:24;;;;;;;11.35;7.63;;;19.10;99.90;;;19.04;100.00;97172.31;5040366;28;20036;-38
2023/06/21 02:08:50;;;;;;;9.32;7.68;;;19.10;99.90;;;19.04;100.00;97183.00;5038921;28;20033;-38
2023/06/21 02:11:17;;;;;;;7.85;7.00;;;19.10;99.90;;;19.02;100.00;97176.91;5033384;28;20059;-38
2023/06/21 02:13:48;;;;;;;7.82;7.05;;;19.00;99.90;;;19.01;100.00;97178.75;5038524;28;20342;-40
2023/06/21 02:16:15;;;;;;;8.48;6.82;;;19.00;99.90;;;19.00;100.00;97184.19;5037472;28;20104;-40
2023/06/21 02:18:41;;;;;;;8.93;7.28;;;19.00;99.90;;;19.03;100.00;97194.66;5035805;28;20037;-38
2023/06/21 02:21:06;;;;;;;7.85;7.05;;;19.00;99.90;;;19.07;100.00;97191.63;5017288;28;20040;-38
2023/06/21 02:23:32;;;;;;;9.40;7.15;;;19.10;99.90;;;19.12;100.00;97191.31;5035523;28;20398;-39
2023/06/21 02:25:58;;;;;;;10.82;7.38;;;19.10;99.90;;;19.12;100.00;97187.78;5029859;28;20186;-40
2023/06/21 02:28:24;;;;;;;8.55;6.75;;;19.20;99.90;;;19.15;100.00;97180.38;5037451;28;20036;-37
2023/06/21 02:30:49;;;;;;;8.18;7.25;;;19.20;99.90;;;19.14;100.00;97180.50;5031775;28;20140;-39
2023/06/21 02:33:15;;;;;;;12.77;7.45;;;19.20;99.90;;;19.14;100.00;97184.03;5031208;28;20036;-39
2023/06/21 02:35:41;;;;;;;9.55;7.30;;;19.20;99.90;;;19.15;100.00;97187.53;5032334;28;20244;-38
2023/06/21 02:38:07;;;;;;;10.57;7.25;;;19.10;99.90;;;19.16;100.00;97194.59;5032664;28;20403;-38
2023/06/21 02:40:32;;;;;;;7.85;6.95;;;19.20;99.90;;;19.16;100.00;97194.59;5032319;28;20082;-38
2023/06/21 02:42:58;;;;;;;8.82;7.22;;;19.10;99.90;;;19.17;100.00;97190.97;5034633;28;20025;-38
2023/06/21 02:45:24;;;;;;;9.85;7.45;;;19.20;99.90;;;19.18;100.00;97190.81;5030631;28;20639;-39
2023/06/21 02:47:50;;;;;;;12.13;7.55;;;19.20;99.90;;;19.17;100.00;97185.63;5037963;28;20076;-39
2023/06/21 02:50:18;;;;;;;12.18;7.90;;;19.20;99.90;;;19.16;100.00;97189.25;5038822;28;20117;-38
2023/06/21 02:52:44;;;;;;;8.15;7.35;;;19.20;99.90;;;19.14;100.00;97192.03;5038541;28;20036;-38
2023/06/21 02:55:10;;;;;;;9.77;7.78;;;19.10;99.90;;;19.15;100.00;97198.22;5037230;28;20029;-38
2023/06/21 02:57:36;;;;;;;8.52;7.18;;;19.20;99.90;;;19.07;100.00;97185.44;5040003;28;20039;-38
2023/06/21 03:00:17;;;;;;;9.52;7.80;;;19.10;99.90;;;19.13;100.00;97203.72;5036381;28;20041;-38
2023/06/21 03:02:44;;;;;;;10.30;7.20;;;19.20;99.90;;;19.13;100.00;97205.50;5042995;28;20029;-37
2023/06/21 03:05:12;;;;;;;10.73;7.63;;;19.20;99.90;;;19.10;100.00;97211.94;5033761;28;20076;-39
2023/06/21 03:07:43;;;;;;;7.95;7.15;;;19.10;99.90;;;19.00;100.00;97198.41;5041897;28;20387;-38
2023/06/21 03:10:14;;;;;;;8.70;7.53;;;19.10;99.90;;;19.06;100.00;97218.50;5036227;28;20119;-39
2023/06/21 03:12:44;;;;;;;9.55;7.35;;;19.10;99.90;;;19.02;100.00;97209.88;5037327;28;20551;-39
2023/06/21 03:15:10;;;;;;;8.35;7.45;;;19.10;99.90;;;19.15;100.00;97225.84;5032463;28;20458;-39
2023/06/21 03:17:37;;;;;;;8.63;7.18;;;19.10;99.90;;;19.13;100.00;97219.75;5035870;28;20060;-40
2023/06/21 03:20:09;;;;;;;8.10;7.30;;;19.20;99.90;;;19.26;100.00;97244.59;5037981;28;20028;-38
2023/06/21 03:22:35;;;;;;;10.35;7.40;;;19.30;99.90;;;19.31;100.00;97254.06;5033081;28;20082;-38
2023/06/21 03:25:01;;;;;;;10.18;7.38;;;19.30;99.90;;;19.37;100.00;97254.47;5042474;28;20312;-39
2023/06/21 03:27:27;;;;;;;11.43;7.68;;;19.40;99.90;;;19.42;100.00;97246.97;5038427;28;20569;-39
2023/06/21 03:29:53;;;;;;;8.43;7.32;;;19.50;99.90;;;19.45;100.00;97244.06;5047835;28;20028;-39
2023/06/21 03:32:19;;;;;;;8.70;6.78;;;19.50;99.90;;;19.51;100.00;97256.13;5037773;28;20512;-39
2023/06/21 03:34:45;;;;;;;10.05;7.40;;;19.50;99.90;;;19.55;100.00;97259.41;5040824;28;20032;-38
2023/06/21 03:37:12;;;;;;;8.63;7.43;;;19.60;99.90;;;19.62;100.00;97258.00;5037440;28;20037;-39
2023/06/21 03:39:38;;;;;;;11.57;6.72;;;19.70;99.90;;;19.67;100.00;97279.91;5044141;28;20550;-38
2023/06/21 03:42:04;;;;;;;14.32;7.55;;;19.70;99.90;;;19.68;100.00;97313.69;5039986;28;20060;-38
2023/06/21 03:44:29;;;;;;;10.27;7.63;;;19.80;99.90;;;19.71;100.00;97360.78;5037562;28;20422;-38
2023/06/21 03:46:55;;;;;;;11.80;7.05;;;19.80;99.90;;;19.75;100.00;97387.19;5029992;28;20036;-38
2023/06/21 03:49:22;;;;;;;8.77;7.47;;;19.80;99.90;;;19.77;100.00;97349.63;5032506;28;20714;-38
2023/06/21 03:51:48;;;;;;;9.18;7.25;;;19.80;99.90;;;19.55;100.00;97409.22;5041941;28;20056;-39
2023/06/21 03:54:14;;;;;;;10.70;7.60;;;19.70;99.90;;;19.18;100.00;97401.16;5037239;28;20028;-39
2023/06/21 03:56:39;;;;;;;13.80;7.57;;;19.30;99.90;;;18.79;100.00;97382.50;5033885;28;20107;-38
2023/06/21 03:59:05;;;;;;;13.32;8.27;;;19.00;99.90;;;18.47;100.00;97355.38;5035012;28;20040;-38
2023/06/21 04:01:31;;;;;;;10.18;7.55;;;18.60;99.90;;;18.36;100.00;97345.44;5033963;28;20534;-37
2023/06/21 04:03:57;;;;;;;8.85;7.95;;;18.50;99.90;;;18.24;100.00;97322.25;5040320;28;20016;-37
2023/06/21 04:06:23;;;;;;;13.32;9.05;;;18.30;99.90;;;18.19;100.00;97343.91;5037986;28;24289;-39
2023/06/21 04:08:48;;;;;;;10.40;8.65;;;18.30;99.90;;;18.13;100.00;97326.53;5040440;28;20394;-39
2023/06/21 04:11:15;;;;;;;16.65;9.20;;;18.20;99.90;;;18.06;100.00;97335.91;5032748;28;20387;-38
2023/06/21 04:13:40;;;;;;;9.00;8.07;;;18.20;99.90;;;18.06;100.00;97333.25;5041319;28;20048;-39
2023/06/21 04:16:06;;;;;;;10.38;7.95;;;18.10;99.90;;;18.06;100.00;97335.06;5040063;28;20032;-39
2023/06/21 04:18:32;;;;;;;12.85;8.40;;;18.20;99.90;;;18.07;100.00;97318.06;5037050;28;20635;-39
2023/06/21 04:20:58;;;;;;;9.70;7.47;;;18.20;99.90;;;18.09;100.00;97317.03;5032548;28;20029;-37
2023/06/21 04:23:26;;;;;;;9.90;7.47;;;18.20;99.90;;;18.10;100.00;97315.19;5037579;28;20036;-38
2023/06/21 04:25:52;;;;;;;10.00;6.65;;;18.20;99.90;;;18.13;100.00;97318.50;5036126;28;20498;-38
2023/06/21 04:28:25;;;;;;;8.48;6.85;;;18.20;99.90;;;18.13;100.00;97323.00;5039625;28;20086;-38
2023/06/21 04:30:52;;;;;;;10.05;6.63;;;18.20;99.90;;;18.16;100.00;97321.94;5032554;28;20707;-39
2023/06/21 04:33:18;;;;;;;7.82;6.40;;;18.20;99.90;;;18.19;100.00;97324.41;5035196;28;20031;-40
2023/06/21 04:35:44;;;;;;;7.57;6.28;;;18.30;99.90;;;18.24;100.00;97327.59;5034648;28;20116;-39
2023/06/21 04:38:09;;;;;;;7.97;7.13;;;18.30;99.90;;;18.27;100.00;97312.22;5033635;28;20545;-41
2023/06/21 04:40:35;;;;;;;9.73;7.35;;;18.30;99.90;;;18.35;100.00;97314.34;5038979;28;20403;-39
2023/06/21 04:43:01;;;;;;;12.10;7.90;;;18.40;99.90;;;18.44;100.00;97328.88;5027316;28;20033;-40
2023/06/21 04:45:26;;;;;;;9.80;7.38;;;18.50;99.90;;;18.41;100.00;97316.63;5022904;28;20035;-40
2023/06/21 04:47:57;;;;;;;8.90;7.22;;;18.60;99.90;;;18.57;100.00;97329.72;5037055;28;20079;-40
2023/06/21 04:50:23;;;;;;;11.65;7.50;;;18.70;99.90;;;18.64;100.00;97333.66;5040362;28;20033;-41
2023/06/21 04:52:50;;;;;;;9.13;7.65;;;18.70;99.90;;;18.69;100.00;97347.53;5034563;28;20044;-39
2023/06/21 04:55:17;;;;;;;9.85;7.07;;;18.80;99.90;;;18.76;100.00;97345.31;5034079;28;20112;-39
2023/06/21 04:57:47;;;;;;;9.32;7.25;;;18.90;99.90;;;18.82;100.00;97344.03;5036351;28;20079;-39
2023/06/21 05:00:14;;;;;;;11.02;7.55;;;18.90;99.90;;;18.90;100.00;97355.06;5038067;28;20033;-38
2023/06/21 05:02:39;;;;;;;9.43;7.25;;;19.00;99.90;;;19.01;100.00;97351.59;5042399;28;20461;-39
2023/06/21 05:05:05;;;;;;;7.90;6.53;;;19.10;99.90;;;19.09;100.00;97351.88;5039598;28;20665;-39
2023/06/21 05:07:31;;;;;;;7.65;6.50;;;19.20;99.90;;;19.20;100.00;97354.66;5036705;28;20251;-38
2023/06/21 05:09:57;;;;;;;8.02;6.68;;;19.40;99.90;;;19.31;100.00;97353.88;5031754;28;21405;-39
2023/06/21 05:12:23;;;;;;;7.68;6.18;;;19.50;99.90;;;19.36;100.00;97346.38;5030745;28;20069;-39
2023/06/21 05:14:48;;;;;;;7.95;6.50;;;19.50;99.90;;;19.51;100.00;97363.09;5035173;28;20252;-39
2023/06/21 05:17:15;;;;;;;9.48;6.75;;;19.60;99.90;;;19.52;100.00;97364.78;5025503;28;20624;-40
2023/06/21 05:19:42;;;;;;;6.90;6.10;;;19.60;99.90;;;19.50;100.00;97357.88;5029179;28;20410;-39
2023/06/21 05:22:08;;;;;;;7.75;6.95;;;19.60;99.90;;;19.43;100.00;97342.28;5034575;28;20035;-39
2023/06/21 05:24:34;;;;;;;9.10;6.72;;;19.60;99.90;;;19.48;100.00;97357.97;5036358;28;20397;-39
2023/06/21 05:26:59;;;;;;;9.82;5.97;;;19.60;99.90;;;19.45;100.00;97344.81;5038421;28;20035;-39
2023/06/21 05:29:25;;;;;;;11.88;7.47;;;19.60;99.90;;;19.54;100.00;97351.31;5039853;28;20025;-39
2023/06/21 05:31:51;;;;;;;9.32;6.45;;;19.60;99.90;;;19.61;100.00;97358.78;5031181;28;20048;-41
2023/06/21 05:34:17;;;;;;;13.15;7.05;;;19.70;99.90;;;19.71;100.00;97363.44;5082981;23;20040;-36
2023/06/21 05:36:43;;;;;;;9.70;6.28;;;19.80;99.90;;;19.82;100.00;97359.00;5075490;28;21016;-36
2023/06/21 05:39:08;;;;;;;8.68;6.35;;;19.90;99.90;;;19.97;100.00;97362.38;5077155;28;20468;-36
2023/06/21 05:41:34;;;;;;;7.80;5.88;;;20.10;99.90;;;20.11;100.00;97369.34;5079157;28;20166;-36
2023/06/21 05:44:00;;;;;;;8.55;7.15;;;20.20;99.90;;;20.24;100.00;97371.94;5068731;28;20028;-36
2023/06/21 05:46:25;;;;;;;6.50;5.72;;;20.30;99.90;;;20.35;100.00;97365.75;5070612;28;20028;-36
2023/06/21 05:48:51;;;;;;;8.93;6.97;;;20.40;99.90;;;20.43;100.00;97370.53;5077342;28;20396;-36
2023/06/21 05:51:17;;;;;;;10.48;6.97;;;20.50;99.90;;;20.49;100.00;97364.69;5070988;28;20507;-36
2023/06/21 05:53:42;;;;;;;11.73;6.88;;;20.50;99.90;;;20.57;100.00;97354.22;5079070;28;20032;-36
2023/06/21 05:56:08;;;;;;;9.02;7.15;;;20.60;99.90;;;20.63;100.00;97347.56;5075538;28;20035;-36
2023/06/21 05:58:34;;;;;;;8.30;6.68;;;20.70;99.90;;;20.84;100.00;97358.44;5074393;28;20114;-37
2023/06/21 06:01:00;;;;;;;7.63;6.70;;;20.90;99.90;;;20.97;100.00;97357.31;5070727;28;20088;-37
2023/06/21 06:03:25;;;;;;;9.93;7.53;;;21.00;99.90;;;21.09;100.00;97354.63;5070216;28;20032;-36
2023/06/21 06:05:53;;;;;;;9.57;7.22;;;21.10;99.90;;;21.16;100.00;97345.97;5070323;28;20044;-36
2023/06/21 06:08:18;;;;;;;11.43;7.82;;;21.20;99.90;;;21.12;100.00;97328.44;5071736;28;20042;-36
2023/06/21 06:10:44;;;;;;;13.10;7.47;;;21.20;99.90;;;21.18;100.00;97345.84;5079524;28;20039;-36
2023/06/21 06:13:10;;;;;;;9.50;7.57;;;21.20;99.90;;;21.27;100.00;97355.81;5080126;28;20066;-37
2023/06/21 06:15:35;;;;;;;9.77;7.90;;;21.20;99.90;;;21.28;100.00;97362.03;5079687;28;20032;-36
2023/06/21 06:18:01;;;;;;;11.55;7.80;;;21.30;99.90;;;21.25;100.00;97368.50;5071018;28;20477;-37
2023/06/21 06:20:28;;;;;;;11.43;7.70;;;21.30;99.90;;;21.28;100.00;97376.31;5076609;28;20035;-36
2023/06/21 06:22:54;;;;;;;8.55;6.50;;;21.20;99.90;;;21.32;100.00;97371.56;5079704;28;20206;-36
2023/06/21 06:25:20;;;;;;;8.10;6.35;;;21.30;99.90;;;21.38;100.00;97360.31;5080655;28;20077;-36
2023/06/21 06:27:45;;;;;;;10.50;7.45;;;21.40;99.90;;;21.51;100.00;97371.75;5083491;28;20047;-36
2023/06/21 06:30:12;;;;;;;13.45;7.60;;;21.40;99.90;;;21.60;100.00;97367.47;5081547;28;20049;-36
2023/06/21 06:32:38;;;;;;;10.68;7.15;;;21.50;99.90;;;21.70;100.00;97355.00;5077598;28;20443;-36
2023/06/21 06:35:04;;;;;;;9.13;6.97;;;21.70;99.90;;;21.81;100.00;97367.53;5076619;28;20081;-36
2023/06/21 06:37:30;;;;;;;14.30;7.32;;;21.80;99.90;;;21.88;100.00;97352.63;5077790;28;20532;-36
2023/06/21 06:39:56;;;;;;;10.52;7.00;;;21.80;99.90;;;21.95;100.00;97365.53;5079560;28;20020;-36
2023/06/21 06:42:22;;;;;;;9.32;7.40;;;21.90;99.90;;;22.11;100.00;97368.66;5075718;28;20024;-36
2023/06/21 06:44:47;;;;;;;8.90;6.75;;;22.00;99.90;;;22.33;100.00;97367.69;5071675;28;20653;-36
2023/06/21 06:47:14;;;;;;;9.32;7.85;;;22.20;99.90;;;22.42;100.00;97380.34;5077422;28;20047;-37
2023/06/21 06:49:39;;;;;;;8.18;6.38;;;22.30;99.90;;;22.50;100.00;97385.03;5075506;28;20058;-37
2023/06/21 06:52:06;;;;;;;8.75;6.70;;;22.40;99.90;;;22.66;100.00;97385.44;5075135;28;20114;-37
2023/06/21 06:54:32;;;;;;;7.18;6.47;;;22.50;99.90;;;22.86;100.00;97383.72;5084216;28;20099;-37
2023/06/21 06:56:57;;;;;;;11.15;6.60;;;22.80;99.90;;;23.16;100.00;97382.00;5075195;27;20423;-37
2023/06/21 06:59:23;;;;;;;9.00;6.30;;;23.10;99.90;;;23.62;100.00;97383.28;5083423;27;20672;-38
2023/06/21 07:01:50;;;;;;;21.55;19.35;;;23.50;99.90;;;24.07;100.00;97384.63;5084495;28;20034;-37
2023/06/21 07:04:15;;;;;;;10.30;8.60;;;23.90;99.90;;;24.38;100.00;97396.09;5081642;27;20544;-37
2023/06/21 07:06:41;;;;;;;9.27;7.15;;;24.30;99.90;;;24.48;100.00;97390.72;5085723;28;20031;-39
2023/06/21 07:09:08;;;;;;;9.55;7.10;;;24.40;99.90;;;24.50;100.00;97399.50;5066182;28;20042;-37
2023/06/21 07:11:34;;;;;;;11.10;8.23;;;24.40;99.90;;;24.48;100.00;97390.72;5087772;28;20048;-37
2023/06/21 07:14:00;;;;;;;12.18;6.78;;;24.50;99.90;;;24.49;100.00;97396.94;5086357;28;20477;-37
2023/06/21 07:16:30;;;;;;;9.68;5.90;;;24.50;99.90;;;24.70;100.00;97388.72;5081522;28;20560;-37
2023/06/21 07:18:56;;;;;;;7.32;5.57;;;24.60;99.90;;;24.87;100.00;97385.25;5067419;28;20508;-37
2023/06/21 07:21:21;;;;;;;12.15;7.55;;;24.70;99.90;;;24.96;100.00;97378.97;5081690;28;20024;-37
2023/06/21 07:23:48;;;;;;;9.73;6.13;;;24.90;99.90;;;25.00;100.00;97367.88;5082843;28;20054;-37
2023/06/21 07:26:14;;;;;;;8.82;5.80;;;24.90;99.90;;;25.09;97.89;97381.34;5081881;28;20115;-37
2023/06/21 07:28:40;;;;;;;9.02;5.50;;;25.00;99.90;;;25.20;98.19;97388.38;5081876;28;20063;-36
2023/06/21 07:31:06;;;;;;;7.10;5.40;;;25.10;99.90;;;25.40;92.78;97388.34;5080463;27;20028;-37
2023/06/21 07:33:32;;;;;;;11.10;5.88;;;25.30;99.90;;;25.45;98.08;97391.44;5085989;28;20040;-37
2023/06/21 07:35:57;;;;;;;6.68;5.20;;;25.40;99.90;;;25.13;91.89;97392.69;5082834;28;20047;-37
2023/06/21 07:38:23;;;;;;;6.25;4.60;;;25.20;99.90;;;24.85;92.23;97389.94;5065309;28;20036;-38
2023/06/21 07:40:49;;;;;;;8.55;5.20;;;24.90;99.90;;;24.64;94.16;97400.06;5082201;28;20027;-37
2023/06/21 07:43:14;;;;;;;5.82;4.32;;;24.70;99.90;;;24.53;97.54;97391.16;5082311;28;20024;-37
2023/06/21 07:45:41;;;;;;;9.80;5.60;;;24.50;99.90;;;24.32;100.00;97395.84;5074568;28;20058;-37
2023/06/21 07:48:08;;;;;;;6.47;4.88;;;24.40;99.90;;;24.09;100.00;97385.34;5081924;28;20402;-37
2023/06/21 07:50:33;;;;;;;7.45;5.50;;;24.20;99.90;;;23.95;100.00;97394.69;5084817;28;20039;-37
2023/06/21 07:52:59;;;;;;;8.55;5.50;;;24.00;99.90;;;23.88;100.00;97398.94;5076898;28;20043;-37
2023/06/21 07:55:25;;;;;;;9.45;5.60;;;23.90;99.90;;;23.89;100.00;97394.41;5080299;28;20039;-37
2023/06/21 07:57:50;;;;;;;6.80;5.35;;;23.90;99.90;;;24.05;100.00;97388.44;5086833;28;20023;-37
2023/06/21 08:00:17;;;;;;;7.00;5.43;;;24.00;99.90;;;24.17;100.00;97393.56;5082410;28;20055;-37
2023/06/21 08:02:49;;;;;;;5.32;4.68;;;24.10;99.90;;;24.54;100.00;97398.25;5086222;28;20028;-37
2023/06/21 08:05:15;;;;;;;8.10;5.70;;;24.50;99.90;;;24.91;100.00;97408.25;5079399;28;20395;-37
2023/06/21 08:07:41;;;;;;;11.48;6.35;;;24.90;99.90;;;25.08;100.00;97403.06;5070538;28;20040;-37
2023/06/21 08:10:08;;;;;;;7.55;4.88;;;25.10;99.90;;;25.10;100.00;97398.38;5073907;28;20024;-37
2023/06/21 08:12:34;;;;;;;11.93;5.70;;;25.20;99.90;;;25.10;100.00;97409.16;5081753;28;20035;-37
2023/06/21 08:15:00;;;;;;;9.95;5.45;;;25.20;99.90;;;25.04;100.00;97418.69;5076503;28;20059;-37
2023/06/21 08:17:26;;;;;;;6.63;5.25;;;25.20;99.90;;;24.87;100.00;97422.16;5079414;28;20019;-37
2023/06/21 08:19:51;;;;;;;7.63;5.47;;;25.00;99.90;;;24.58;100.00;97406.88;5082821;28;20143;-37
2023/06/21 08:22:17;;;;;;;6.78;5.40;;;24.70;99.90;;;24.42;100.00;97430.84;5074911;28;20637;-37
2023/06/21 08:24:43;;;;;;;7.82;5.13;;;24.50;99.90;;;24.20;100.00;97430.16;5084699;28;20036;-37
2023/06/21 08:27:09;;;;;;;6.25;5.05;;;24.20;99.90;;;23.97;100.00;97429.56;5083002;27;20728;-37
2023/06/21 08:29:35;;;;;;;6.68;5.63;;;24.00;99.90;;;23.73;100.00;97430.78;5081752;27;20097;-37
2023/06/21 08:32:01;;;;;;;7.43;5.05;;;23.80;99.90;;;23.67;100.00;97443.94;5080043;27;20078;-37
2023/06/21 08:34:26;;;;;;;6.90;4.82;;;23.70;99.90;;;23.56;100.00;97444.88;5077635;28;20028;-38
2023/06/21 08:36:52;;;;;;;8.10;4.55;;;23.60;99.90;;;23.48;100.00;97444.75;5081994;28;20039;-38
2023/06/21 08:39:18;;;;;;;7.10;5.18;;;23.50;99.90;;;23.40;100.00;97448.97;5076438;28;20036;-37
2023/06/21 08:41:44;;;;;;;10.07;5.15;;;23.40;99.90;;;23.34;100.00;97449.47;5082252;28;20674;-37
2023/06/21 08:44:10;;;;;;;7.45;5.30;;;23.30;99.90;;;23.32;100.00;97450.63;5085532;28;20024;-37
2023/06/21 08:46:36;;;;;;;7.75;5.25;;;23.30;99.90;;;23.31;100.00;97449.78;5079438;28;20375;-37
2023/06/21 08:49:05;;;;;;;9.90;5.00;;;23.30;99.90;;;23.21;100.00;97455.09;5086819;28;20032;-37
2023/06/21 08:51:34;;;;;;;8.02;4.95;;;23.30;99.90;;;23.17;100.00;97463.59;5068896;28;20119;-37
2023/06/21 08:54:12;;;;;;;5.72;4.15;;;23.20;99.90;;;23.09;100.00;97464.25;5076486;28;20085;-37
2023/06/21 08:56:51;;;;;;;8.68;4.30;;;23.10;99.90;;;22.93;100.00;97479.97;5083638;28;20093;-37
2023/06/21 08:59:37;;;;;;;6.93;4.80;;;22.90;99.90;;;22.77;100.00;97483.13;5061788;28;20084;-36
2023/06/21 09:02:14;;;;;;;12.85;5.00;;;22.80;99.90;;;22.61;100.00;97479.06;5062444;28;20956;-36
2023/06/21 09:04:46;;;;;;;8.32;4.72;;;22.70;99.90;;;22.54;100.00;97483.25;5083240;28;20065;-36
2023/06/21 09:07:13;;;;;;;5.95;4.68;;;22.60;99.90;;;22.44;100.00;97476.94;5061414;28;20028;-36
2023/06/21 09:09:40;;;;;;;5.85;4.15;;;22.50;99.90;;;22.33;100.00;97477.00;5064114;28;20214;-37
2023/06/21 09:12:07;;;;;;;5.03;3.90;;;;;;;22.21;100.00;97470.78;5061707;28;20104;-36
2023/06/21 09:14:34;;;;;;;6.70;4.00;;;22.30;99.90;;;22.00;100.00;97451.91;5063159;28;20036;-36
2023/06/21 09:17:01;;;;;;;7.47;4.25;;;22.10;99.90;;;21.89;100.00;97461.72;5063467;28;20060;-36
2023/06/21 09:19:28;;;;;;;5.30;3.95;;;22.00;99.90;;;21.72;100.00;97448.81;5081513;28;20637;-36
2023/06/21 09:21:57;;;;;;;7.65;4.65;;;21.80;99.90;;;21.54;100.00;97424.34;5083598;28;20024;-36
2023/06/21 09:24:23;;;;;;;6.88;4.60;;;21.60;99.90;;;21.25;100.00;97391.81;5079401;28;20767;-36
2023/06/21 09:26:49;;;;;;;5.30;4.80;;;21.40;99.90;;;21.13;100.00;97404.34;5062847;27;20040;-37
2023/06/21 09:29:16;;;;;;;7.15;4.13;;;21.20;99.90;;;20.97;100.00;97436.88;5081090;28;20119;-37
2023/06/21 09:31:42;;;;;;;7.82;4.38;;;21.00;99.90;;;20.73;100.00;97429.81;5081761;28;20028;-37
2023/06/21 09:34:08;;;;;;;6.22;4.18;;;20.90;99.90;;;20.70;100.00;97442.59;5078734;28;20048;-37
2023/06/21 09:36:34;;;;;;;7.00;4.43;;;20.80;99.90;;;20.60;100.00;97461.16;5080787;28;20093;-37
2023/06/21 09:39:10;;;;;;;6.40;3.90;;;20.70;99.90;;;20.50;100.00;97450.28;5081122;28;20054;-37
2023/06/21 09:41:38;;;;;;;5.55;4.20;;;20.60;99.90;;;20.40;100.00;97422.50;5081621;28;20032;-37
2023/06/21 09:44:04;;;;;;;8.52;5.50;;;20.50;99.90;;;20.27;100.00;97374.38;5062998;28;20052;-37
2023/06/21 09:46:30;;;;;;;12.60;5.65;;;20.40;99.90;;;20.25;100.00;97386.19;5074531;27;20039;-37
2023/06/21 09:49:09;;;;;;;7.72;4.85;;;20.30;99.90;;;20.13;100.00;97393.31;5078617;28;20024;-37
2023/06/21 09:51:43;;;;;;;8.82;4.75;;;20.20;99.90;;;20.05;100.00;97412.66;5077263;28;20088;-37
2023/06/21 09:54:08;;;;;;;6.72;4.65;;;20.10;99.90;;;19.97;100.00;97413.25;5081288;28;20105;-37
2023/06/21 09:56:36;;;;;;;5.68;4.50;;;20.10;99.90;;;19.96;100.00;97416.03;5080143;28;20516;-37
2023/06/21 09:59:02;;;;;;;5.70;4.00;;;20.00;99.90;;;19.93;100.00;97414.41;5079752;28;20040;-37
2023/06/21 10:01:41;;;;;;;5.22;4.20;;;20.00;99.90;;;19.91;100.00;97428.88;5080288;28;20330;-37
2023/06/21 10:04:13;;;;;;;4.97;3.83;;;20.00;99.90;;;19.85;100.00;97432.88;5081113;28;20024;-37
2023/06/21 10:06:50;;;;;;;6.40;4.28;;;20.00;99.90;;;19.88;100.00;97466.56;5081836;28;20523;-38
2023/06/21 10:09:16;;;;;;;9.73;6.05;;;19.90;99.90;;;19.86;100.00;97489.94;5077779;28;20047;-37
2023/06/21 10:11:48;;;;;;;8.52;5.18;;;19.90;99.90;;;19.79;100.00;97489.50;5081021;28;20028;-37